Wolf Creek, MT

3:36 PM MDT on July 01, 2015 (GMT -0600)
Craig, Montana | | Change Station
CLOSE
Current Station
Personal Weather Station
Location: Craig, MT
Elevation: 3566 ft
Nearby Weather Stations

Elev 3566 ft 47.13 °N, 111.90 °W | Updated 16 seconds ago

Partly Cloudy
Partly Cloudy
95.5 °F
Feels Like 91 °F
N
1.3
Wind Variable Wind from WSW
Gusts 5.4 mph

Today
High -- | Low -- °F
--% Chance of Precip.
Yesterday
High -- | Low -- °F
Precip. -- in
5:36 AM 9:26 PM
Full, 100% visible
Pressure 29.94 in
Visibility 10.0 miles
Clouds Scattered Clouds 10000 ft
Heat Index 91 °F
Dew Point 42 °F
Humidity 16%
Rainfall 0.00 in
Snow Depth Not available.
UV 8 out of 12
Pollen 6.20 out of 12
Air Quality Not available.
Flu Activity Not available.
METAR KHLN 012053Z AUTO 27012G21KT 10SM SCT100 34/06 A3002 RMK AO2 SLP138 T03390056 58008 TSNO

More Conditions Fewer Conditions

Pressure 29.94 in
Visibility 10.0 miles
Clouds Scattered Clouds 10000 ft
Heat Index 91 °F
Dew Point 42 °F
Humidity 16%
Rainfall 0.00 in
Snow Depth Not available.
UV 8 out of 12
Pollen 6.20 out of 12
Air Quality Not available.
Flu Activity Not available.
METAR KHLN 012053Z AUTO 27012G21KT 10SM SCT100 34/06 A3002 RMK AO2 SLP138 T03390056 58008 TSNO

More Conditions Fewer Conditions

10-Day Weather Forecast

×

Almanac

Astronomy

Jul. 01, 2015 Rise Set
Actual Time
Civil Twilight
Nautical Twilight
Astronomical Twilight
Moon
Length of Visible Light
Length of Day
Tomorrow will be .
, % of the Moon is Illuminated

Today's Extremes

State Highs State Lows

Community

WunderPhotos

Upload Photos

1,834,294 photos uploaded!

WunderBlogs® & News

Nearby

Air Quality

  Air Quality AQ Index Pollutant
Not available.

Snow Depth

Station Depth Elevation

Earthquake Activity

City Distance Mag. Time & Date
Minimum magnitude displayed is 2.5.

Coastal Water Temperatures

Place Temperature

Stations

Nearby Weather Stations

Station Location Temp. Windchill Dew Point Humidity Wind Precip. Elev Updated Type